Terminal Aerodrome Forecast
Issued by NWS North Platte, NE

Home | Current Version | Previous Version | Graphics & Text | Print | Product List | Glossary On
Versions: 1 2 3 4 5 6 7 8 9 10 11 12 13 14 15
956
FTUS43 KLBF 181139
TAFVTN
TAF
KVTN 181139Z 1812/1912 20006KT P6SM FEW250
     FM190200 17008KT P6SM FEW250
     FM191000 18007KT P6SM FEW200=

USA.gov is the U.S. government's official web portal to all federal, state and local government web resources and services.